Sorell, Australia
Current Conditions -  °F | °C
As of 4:00 PM on Sunday 23 Nov 2014 (Local Time) from YMHB Reporting Station
Few Clouds Few Clouds  
Wind Chill: 68°   Ceiling: Unl
Heat Index: 68°   Visibility: 6mi
Dew Point: 52°   Wind: 13mph
Humidity: 56%   Direction: 70°ENE
Pressure: 29.77"   Gusts: NA
Location:  42.78°S, 147.56°E
Report Text: YMHB 230500Z 07011KT 9999 FEW025 20/11 Q1008
Loading
Personal Weather Stations






























Interactive Weather Map New forecast layout! Learn more

10-Day Weather Forecast

Advertisements
Track Severe Weather on mobile